sensor_id;sensor_type;location;lat;lon;timestamp;P1;durP1;ratioP1;P2;durP2;ratioP2
39842;SDS011;25514;46.764;15.406;2022-08-03T00:01:51;6.28;;;3.00;;
39842;SDS011;25514;46.764;15.406;2022-08-03T00:04:17;6.18;;;2.85;;
39842;SDS011;25514;46.764;15.406;2022-08-03T00:06:42;3.20;;;2.70;;
39842;SDS011;25514;46.764;15.406;2022-08-03T00:09:08;4.90;;;3.15;;
39842;SDS011;25514;46.764;15.406;2022-08-03T00:11:34;6.97;;;2.85;;
39842;SDS011;25514;46.764;15.406;2022-08-03T00:14:00;4.53;;;3.42;;
39842;SDS011;25514;46.764;15.406;2022-08-03T00:16:27;7.28;;;3.28;;
39842;SDS011;25514;46.764;15.406;2022-08-03T00:18:53;4.43;;;2.90;;
39842;SDS011;25514;46.764;15.406;2022-08-03T00:21:18;3.42;;;2.63;;
39842;SDS011;25514;46.764;15.406;2022-08-03T00:23:44;4.07;;;2.92;;
39842;SDS011;25514;46.764;15.406;2022-08-03T00:26:09;3.47;;;2.85;;
39842;SDS011;25514;46.764;15.406;2022-08-03T00:28:34;5.88;;;2.58;;
39842;SDS011;25514;46.764;15.406;2022-08-03T00:31:00;3.63;;;3.13;;
39842;SDS011;25514;46.764;15.406;2022-08-03T00:33:25;4.75;;;2.50;;
39842;SDS011;25514;46.764;15.406;2022-08-03T00:35:51;5.20;;;2.83;;
39842;SDS011;25514;46.764;15.406;2022-08-03T00:38:17;4.75;;;3.00;;
39842;SDS011;25514;46.764;15.406;2022-08-03T00:40:44;2.85;;;2.38;;
39842;SDS011;25514;46.764;15.406;2022-08-03T00:43:09;3.55;;;2.30;;
39842;SDS011;25514;46.764;15.406;2022-08-03T00:45:37;4.03;;;2.38;;
39842;SDS011;25514;46.764;15.406;2022-08-03T00:48:04;4.47;;;2.90;;
39842;SDS011;25514;46.764;15.406;2022-08-03T00:50:33;4.15;;;2.83;;
39842;SDS011;25514;46.764;15.406;2022-08-03T00:53:01;5.47;;;2.80;;
39842;SDS011;25514;46.764;15.406;2022-08-03T00:55:28;2.80;;;2.42;;
39842;SDS011;25514;46.764;15.406;2022-08-03T00:57:54;2.78;;;2.33;;
39842;SDS011;25514;46.764;15.406;2022-08-03T01:00:21;5.60;;;2.83;;
39842;SDS011;25514;46.764;15.406;2022-08-03T01:02:48;3.92;;;2.55;;
39842;SDS011;25514;46.764;15.406;2022-08-03T01:05:15;5.35;;;2.25;;
39842;SDS011;25514;46.764;15.406;2022-08-03T01:12:58;3.13;;;2.38;;
39842;SDS011;25514;46.764;15.406;2022-08-03T01:15:28;3.95;;;3.05;;
39842;SDS011;25514;46.764;15.406;2022-08-03T01:17:59;4.18;;;2.78;;
39842;SDS011;25514;46.764;15.406;2022-08-03T01:31:18;5.75;;;2.65;;
39842;SDS011;25514;46.764;15.406;2022-08-03T01:33:49;5.72;;;2.53;;
39842;SDS011;25514;46.764;15.406;2022-08-03T01:36:24;4.43;;;2.50;;
39842;SDS011;25514;46.764;15.406;2022-08-03T01:38:55;3.17;;;2.63;;
39842;SDS011;25514;46.764;15.406;2022-08-03T01:41:28;3.38;;;2.55;;
39842;SDS011;25514;46.764;15.406;2022-08-03T01:43:57;2.95;;;2.25;;
39842;SDS011;25514;46.764;15.406;2022-08-03T01:46:26;2.95;;;2.33;;
39842;SDS011;25514;46.764;15.406;2022-08-03T01:48:52;2.50;;;2.30;;
39842;SDS011;25514;46.764;15.406;2022-08-03T01:51:19;3.83;;;2.60;;
39842;SDS011;25514;46.764;15.406;2022-08-03T01:53:47;2.90;;;2.35;;
39842;SDS011;25514;46.764;15.406;2022-08-03T01:56:15;4.80;;;2.70;;
39842;SDS011;25514;46.764;15.406;2022-08-03T01:58:44;3.17;;;2.70;;
39842;SDS011;25514;46.764;15.406;2022-08-03T02:01:11;3.42;;;2.40;;
39842;SDS011;25514;46.764;15.406;2022-08-03T02:03:40;5.60;;;2.80;;
39842;SDS011;25514;46.764;15.406;2022-08-03T02:06:10;3.35;;;3.05;;
39842;SDS011;25514;46.764;15.406;2022-08-03T02:08:38;7.15;;;2.63;;
39842;SDS011;25514;46.764;15.406;2022-08-03T02:11:07;3.22;;;2.70;;
39842;SDS011;25514;46.764;15.406;2022-08-03T02:13:33;6.72;;;2.90;;
39842;SDS011;25514;46.764;15.406;2022-08-03T02:16:00;3.90;;;2.47;;
39842;SDS011;25514;46.764;15.406;2022-08-03T02:18:28;6.70;;;2.80;;
39842;SDS011;25514;46.764;15.406;2022-08-03T02:20:59;3.78;;;3.20;;
39842;SDS011;25514;46.764;15.406;2022-08-03T02:23:26;2.75;;;2.40;;
39842;SDS011;25514;46.764;15.406;2022-08-03T02:25:52;5.28;;;2.58;;
39842;SDS011;25514;46.764;15.406;2022-08-03T02:28:28;4.47;;;3.03;;
39842;SDS011;25514;46.764;15.406;2022-08-03T02:30:58;5.05;;;2.92;;
39842;SDS011;25514;46.764;15.406;2022-08-03T02:33:30;3.90;;;3.05;;
39842;SDS011;25514;46.764;15.406;2022-08-03T02:36:00;5.78;;;3.55;;
39842;SDS011;25514;46.764;15.406;2022-08-03T02:38:30;3.10;;;2.60;;
39842;SDS011;25514;46.764;15.406;2022-08-03T02:40:57;2.88;;;2.30;;
39842;SDS011;25514;46.764;15.406;2022-08-03T02:43:25;2.95;;;2.65;;
39842;SDS011;25514;46.764;15.406;2022-08-03T02:45:54;3.95;;;3.10;;
39842;SDS011;25514;46.764;15.406;2022-08-03T02:48:20;4.28;;;2.60;;
39842;SDS011;25514;46.764;15.406;2022-08-03T02:50:52;3.00;;;2.70;;
39842;SDS011;25514;46.764;15.406;2022-08-03T02:53:20;5.72;;;2.83;;
39842;SDS011;25514;46.764;15.406;2022-08-03T02:55:48;4.70;;;3.33;;
39842;SDS011;25514;46.764;15.406;2022-08-03T02:58:16;5.25;;;3.30;;
39842;SDS011;25514;46.764;15.406;2022-08-03T03:00:45;5.43;;;3.67;;
39842;SDS011;25514;46.764;15.406;2022-08-03T03:03:11;3.67;;;2.78;;
39842;SDS011;25514;46.764;15.406;2022-08-03T03:05:39;4.57;;;3.17;;
39842;SDS011;25514;46.764;15.406;2022-08-03T03:08:06;4.90;;;3.38;;
39842;SDS011;25514;46.764;15.406;2022-08-03T03:10:33;4.13;;;3.10;;
39842;SDS011;25514;46.764;15.406;2022-08-03T03:13:01;4.93;;;3.08;;
39842;SDS011;25514;46.764;15.406;2022-08-03T03:15:27;4.30;;;3.00;;
39842;SDS011;25514;46.764;15.406;2022-08-03T03:17:55;3.50;;;2.92;;
39842;SDS011;25514;46.764;15.406;2022-08-03T03:20:21;3.90;;;2.72;;
39842;SDS011;25514;46.764;15.406;2022-08-03T03:22:49;5.20;;;2.92;;
39842;SDS011;25514;46.764;15.406;2022-08-03T03:25:15;4.75;;;3.20;;
39842;SDS011;25514;46.764;15.406;2022-08-03T03:27:41;2.67;;;2.47;;
39842;SDS011;25514;46.764;15.406;2022-08-03T03:30:08;2.65;;;2.40;;
39842;SDS011;25514;46.764;15.406;2022-08-03T03:32:34;3.08;;;2.50;;
39842;SDS011;25514;46.764;15.406;2022-08-03T03:35:01;3.92;;;2.90;;
39842;SDS011;25514;46.764;15.406;2022-08-03T03:37:27;5.93;;;2.80;;
39842;SDS011;25514;46.764;15.406;2022-08-03T03:39:53;3.17;;;2.60;;
39842;SDS011;25514;46.764;15.406;2022-08-03T03:42:19;3.15;;;2.80;;
39842;SDS011;25514;46.764;15.406;2022-08-03T03:44:45;4.40;;;2.72;;
39842;SDS011;25514;46.764;15.406;2022-08-03T03:47:10;3.72;;;2.80;;
39842;SDS011;25514;46.764;15.406;2022-08-03T03:49:36;4.30;;;2.13;;
39842;SDS011;25514;46.764;15.406;2022-08-03T03:52:03;3.85;;;2.75;;
39842;SDS011;25514;46.764;15.406;2022-08-03T03:54:40;5.05;;;2.47;;
39842;SDS011;25514;46.764;15.406;2022-08-03T03:57:06;6.68;;;3.28;;
39842;SDS011;25514;46.764;15.406;2022-08-03T03:59:35;4.03;;;2.70;;
39842;SDS011;25514;46.764;15.406;2022-08-03T04:02:02;3.47;;;2.75;;
39842;SDS011;25514;46.764;15.406;2022-08-03T04:04:30;2.78;;;2.58;;
39842;SDS011;25514;46.764;15.406;2022-08-03T04:07:15;2.78;;;2.50;;
39842;SDS011;25514;46.764;15.406;2022-08-03T04:10:00;5.25;;;3.17;;
39842;SDS011;25514;46.764;15.406;2022-08-03T04:12:45;3.42;;;2.90;;
39842;SDS011;25514;46.764;15.406;2022-08-03T04:15:12;3.00;;;2.30;;
39842;SDS011;25514;46.764;15.406;2022-08-03T04:17:39;4.13;;;2.85;;
39842;SDS011;25514;46.764;15.406;2022-08-03T04:20:06;2.80;;;2.47;;
39842;SDS011;25514;46.764;15.406;2022-08-03T04:22:32;2.60;;;2.40;;
39842;SDS011;25514;46.764;15.406;2022-08-03T04:25:03;5.10;;;2.78;;
39842;SDS011;25514;46.764;15.406;2022-08-03T04:30:04;4.28;;;2.80;;
39842;SDS011;25514;46.764;15.406;2022-08-03T04:32:31;4.40;;;2.72;;
39842;SDS011;25514;46.764;15.406;2022-08-03T04:34:57;5.55;;;2.60;;
39842;SDS011;25514;46.764;15.406;2022-08-03T04:37:25;2.90;;;2.17;;
39842;SDS011;25514;46.764;15.406;2022-08-03T04:39:53;4.15;;;2.60;;
39842;SDS011;25514;46.764;15.406;2022-08-03T04:42:23;5.18;;;2.45;;
39842;SDS011;25514;46.764;15.406;2022-08-03T04:44:50;2.58;;;2.20;;
39842;SDS011;25514;46.764;15.406;2022-08-03T04:47:18;3.10;;;2.38;;
39842;SDS011;25514;46.764;15.406;2022-08-03T04:49:45;3.95;;;2.60;;
39842;SDS011;25514;46.764;15.406;2022-08-03T04:52:10;3.05;;;2.75;;
39842;SDS011;25514;46.764;15.406;2022-08-03T04:54:40;3.60;;;2.28;;
39842;SDS011;25514;46.764;15.406;2022-08-03T04:57:06;6.32;;;2.80;;
39842;SDS011;25514;46.764;15.406;2022-08-03T04:59:31;2.75;;;2.17;;
39842;SDS011;25514;46.764;15.406;2022-08-03T05:01:57;2.58;;;2.35;;
39842;SDS011;25514;46.764;15.406;2022-08-03T05:04:22;3.53;;;2.20;;
39842;SDS011;25514;46.764;15.406;2022-08-03T05:06:48;3.88;;;2.40;;
39842;SDS011;25514;46.764;15.406;2022-08-03T05:09:13;6.85;;;2.50;;
39842;SDS011;25514;46.764;15.406;2022-08-03T05:11:38;5.53;;;3.00;;
39842;SDS011;25514;46.764;15.406;2022-08-03T05:14:04;5.65;;;2.60;;
39842;SDS011;25514;46.764;15.406;2022-08-03T05:16:29;5.28;;;2.85;;
39842;SDS011;25514;46.764;15.406;2022-08-03T05:18:55;3.85;;;2.47;;
39842;SDS011;25514;46.764;15.406;2022-08-03T05:21:20;3.03;;;2.55;;
39842;SDS011;25514;46.764;15.406;2022-08-03T05:23:46;4.43;;;2.28;;
39842;SDS011;25514;46.764;15.406;2022-08-03T05:26:11;4.22;;;2.53;;
39842;SDS011;25514;46.764;15.406;2022-08-03T05:28:37;4.72;;;2.30;;
39842;SDS011;25514;46.764;15.406;2022-08-03T05:31:02;2.85;;;2.55;;
39842;SDS011;25514;46.764;15.406;2022-08-03T05:33:28;4.45;;;2.75;;
39842;SDS011;25514;46.764;15.406;2022-08-03T05:35:53;3.00;;;2.55;;
39842;SDS011;25514;46.764;15.406;2022-08-03T05:38:19;4.63;;;3.10;;
39842;SDS011;25514;46.764;15.406;2022-08-03T05:40:45;7.63;;;2.92;;
39842;SDS011;25514;46.764;15.406;2022-08-03T05:43:10;5.20;;;2.60;;
39842;SDS011;25514;46.764;15.406;2022-08-03T05:45:36;3.60;;;2.38;;
39842;SDS011;25514;46.764;15.406;2022-08-03T05:48:02;3.10;;;2.22;;
39842;SDS011;25514;46.764;15.406;2022-08-03T05:50:29;2.83;;;2.20;;
39842;SDS011;25514;46.764;15.406;2022-08-03T05:52:54;2.95;;;2.60;;
39842;SDS011;25514;46.764;15.406;2022-08-03T05:55:23;5.20;;;2.30;;
39842;SDS011;25514;46.764;15.406;2022-08-03T05:57:49;2.95;;;2.30;;
39842;SDS011;25514;46.764;15.406;2022-08-03T06:00:15;2.60;;;2.22;;
39842;SDS011;25514;46.764;15.406;2022-08-03T06:02:41;2.33;;;2.03;;
39842;SDS011;25514;46.764;15.406;2022-08-03T06:05:07;3.72;;;2.30;;
39842;SDS011;25514;46.764;15.406;2022-08-03T06:07:33;3.42;;;2.40;;
39842;SDS011;25514;46.764;15.406;2022-08-03T06:09:59;3.97;;;2.05;;
39842;SDS011;25514;46.764;15.406;2022-08-03T06:12:26;3.83;;;2.50;;
39842;SDS011;25514;46.764;15.406;2022-08-03T06:14:52;3.28;;;2.30;;
39842;SDS011;25514;46.764;15.406;2022-08-03T06:17:17;4.47;;;3.00;;
39842;SDS011;25514;46.764;15.406;2022-08-03T06:19:42;8.57;;;3.92;;
39842;SDS011;25514;46.764;15.406;2022-08-03T06:22:08;2.63;;;2.25;;
39842;SDS011;25514;46.764;15.406;2022-08-03T06:24:33;2.10;;;1.88;;
39842;SDS011;25514;46.764;15.406;2022-08-03T06:26:59;2.35;;;2.15;;
39842;SDS011;25514;46.764;15.406;2022-08-03T06:29:24;3.20;;;2.42;;
39842;SDS011;25514;46.764;15.406;2022-08-03T06:31:49;5.85;;;2.40;;
39842;SDS011;25514;46.764;15.406;2022-08-03T06:34:15;5.70;;;2.40;;
39842;SDS011;25514;46.764;15.406;2022-08-03T06:36:40;3.28;;;2.25;;
39842;SDS011;25514;46.764;15.406;2022-08-03T06:39:07;4.05;;;2.67;;
39842;SDS011;25514;46.764;15.406;2022-08-03T06:41:32;3.05;;;2.17;;
39842;SDS011;25514;46.764;15.406;2022-08-03T06:43:58;4.15;;;3.28;;
39842;SDS011;25514;46.764;15.406;2022-08-03T06:46:23;6.10;;;2.30;;
39842;SDS011;25514;46.764;15.406;2022-08-03T06:48:49;6.10;;;2.40;;
39842;SDS011;25514;46.764;15.406;2022-08-03T06:51:14;3.97;;;2.60;;
39842;SDS011;25514;46.764;15.406;2022-08-03T06:53:41;2.55;;;2.22;;
39842;SDS011;25514;46.764;15.406;2022-08-03T06:56:07;4.03;;;2.30;;
39842;SDS011;25514;46.764;15.406;2022-08-03T06:58:33;2.42;;;2.13;;
39842;SDS011;25514;46.764;15.406;2022-08-03T07:00:59;2.67;;;2.17;;
39842;SDS011;25514;46.764;15.406;2022-08-03T07:03:24;3.30;;;1.80;;
39842;SDS011;25514;46.764;15.406;2022-08-03T07:05:50;2.63;;;2.08;;
39842;SDS011;25514;46.764;15.406;2022-08-03T07:08:16;3.90;;;2.25;;
39842;SDS011;25514;46.764;15.406;2022-08-03T07:10:42;3.42;;;2.10;;
39842;SDS011;25514;46.764;15.406;2022-08-03T07:13:08;3.28;;;2.20;;
39842;SDS011;25514;46.764;15.406;2022-08-03T07:15:34;2.80;;;1.90;;
39842;SDS011;25514;46.764;15.406;2022-08-03T07:18:00;4.45;;;2.10;;
39842;SDS011;25514;46.764;15.406;2022-08-03T07:20:26;3.63;;;2.28;;
39842;SDS011;25514;46.764;15.406;2022-08-03T07:22:51;2.63;;;1.75;;
39842;SDS011;25514;46.764;15.406;2022-08-03T07:25:17;3.15;;;2.10;;
39842;SDS011;25514;46.764;15.406;2022-08-03T07:27:46;2.85;;;2.10;;
39842;SDS011;25514;46.764;15.406;2022-08-03T07:30:13;2.90;;;2.30;;
39842;SDS011;25514;46.764;15.406;2022-08-03T07:32:39;3.58;;;2.47;;
39842;SDS011;25514;46.764;15.406;2022-08-03T07:35:05;2.22;;;2.00;;
39842;SDS011;25514;46.764;15.406;2022-08-03T07:37:31;2.40;;;1.98;;
39842;SDS011;25514;46.764;15.406;2022-08-03T07:40:00;2.65;;;2.25;;
39842;SDS011;25514;46.764;15.406;2022-08-03T07:42:27;3.05;;;2.00;;
39842;SDS011;25514;46.764;15.406;2022-08-03T07:44:53;4.40;;;2.25;;
39842;SDS011;25514;46.764;15.406;2022-08-03T07:47:23;3.30;;;1.90;;
39842;SDS011;25514;46.764;15.406;2022-08-03T07:49:53;3.70;;;2.10;;
39842;SDS011;25514;46.764;15.406;2022-08-03T07:52:19;3.15;;;2.17;;
39842;SDS011;25514;46.764;15.406;2022-08-03T07:55:07;3.22;;;2.40;;
39842;SDS011;25514;46.764;15.406;2022-08-03T07:57:34;3.28;;;2.40;;
39842;SDS011;25514;46.764;15.406;2022-08-03T07:59:59;4.28;;;2.22;;
39842;SDS011;25514;46.764;15.406;2022-08-03T08:02:25;3.22;;;2.50;;
39842;SDS011;25514;46.764;15.406;2022-08-03T08:04:50;2.67;;;2.25;;
39842;SDS011;25514;46.764;15.406;2022-08-03T08:07:16;5.15;;;2.50;;
39842;SDS011;25514;46.764;15.406;2022-08-03T08:09:42;3.92;;;2.47;;
39842;SDS011;25514;46.764;15.406;2022-08-03T08:12:07;3.33;;;2.10;;
39842;SDS011;25514;46.764;15.406;2022-08-03T08:14:34;4.88;;;2.60;;
39842;SDS011;25514;46.764;15.406;2022-08-03T08:17:00;2.70;;;2.50;;
39842;SDS011;25514;46.764;15.406;2022-08-03T08:19:25;2.78;;;2.30;;
39842;SDS011;25514;46.764;15.406;2022-08-03T08:21:51;4.53;;;2.60;;
39842;SDS011;25514;46.764;15.406;2022-08-03T08:24:18;2.70;;;2.40;;
39842;SDS011;25514;46.764;15.406;2022-08-03T08:26:44;2.83;;;2.40;;
39842;SDS011;25514;46.764;15.406;2022-08-03T08:29:09;2.42;;;2.22;;
39842;SDS011;25514;46.764;15.406;2022-08-03T08:31:35;3.70;;;2.90;;
39842;SDS011;25514;46.764;15.406;2022-08-03T08:34:00;3.60;;;2.30;;
39842;SDS011;25514;46.764;15.406;2022-08-03T08:36:32;2.67;;;2.40;;
39842;SDS011;25514;46.764;15.406;2022-08-03T08:38:58;3.00;;;2.25;;
39842;SDS011;25514;46.764;15.406;2022-08-03T08:41:23;4.43;;;2.33;;
39842;SDS011;25514;46.764;15.406;2022-08-03T08:43:49;3.72;;;1.95;;
39842;SDS011;25514;46.764;15.406;2022-08-03T08:46:15;4.18;;;1.92;;
39842;SDS011;25514;46.764;15.406;2022-08-03T08:48:43;2.72;;;2.00;;
39842;SDS011;25514;46.764;15.406;2022-08-03T08:51:10;2.88;;;2.15;;
39842;SDS011;25514;46.764;15.406;2022-08-03T08:53:36;4.43;;;1.95;;
39842;SDS011;25514;46.764;15.406;2022-08-03T08:56:04;2.08;;;1.70;;
39842;SDS011;25514;46.764;15.406;2022-08-03T08:58:36;3.05;;;2.08;;
39842;SDS011;25514;46.764;15.406;2022-08-03T09:01:02;2.22;;;2.00;;
39842;SDS011;25514;46.764;15.406;2022-08-03T09:03:28;3.42;;;2.20;;
39842;SDS011;25514;46.764;15.406;2022-08-03T09:05:54;2.53;;;1.90;;
39842;SDS011;25514;46.764;15.406;2022-08-03T09:08:20;2.58;;;1.80;;
39842;SDS011;25514;46.764;15.406;2022-08-03T09:10:47;2.22;;;2.03;;
39842;SDS011;25514;46.764;15.406;2022-08-03T09:13:12;2.03;;;1.83;;
39842;SDS011;25514;46.764;15.406;2022-08-03T09:15:38;2.45;;;1.95;;
39842;SDS011;25514;46.764;15.406;2022-08-03T09:18:04;2.40;;;2.20;;
39842;SDS011;25514;46.764;15.406;2022-08-03T09:20:31;2.28;;;2.08;;
39842;SDS011;25514;46.764;15.406;2022-08-03T09:25:26;2.25;;;1.90;;
39842;SDS011;25514;46.764;15.406;2022-08-03T09:30:33;2.25;;;1.77;;
39842;SDS011;25514;46.764;15.406;2022-08-03T09:32:59;2.05;;;1.50;;
39842;SDS011;25514;46.764;15.406;2022-08-03T09:35:28;3.20;;;1.75;;
39842;SDS011;25514;46.764;15.406;2022-08-03T09:38:10;3.35;;;1.65;;
39842;SDS011;25514;46.764;15.406;2022-08-03T09:40:40;8.40;;;2.15;;
39842;SDS011;25514;46.764;15.406;2022-08-03T09:43:07;2.38;;;1.90;;
39842;SDS011;25514;46.764;15.406;2022-08-03T09:45:33;2.25;;;1.95;;
39842;SDS011;25514;46.764;15.406;2022-08-03T09:50:48;3.08;;;2.13;;
39842;SDS011;25514;46.764;15.406;2022-08-03T09:53:17;2.50;;;1.73;;
39842;SDS011;25514;46.764;15.406;2022-08-03T09:58:21;5.13;;;1.85;;
39842;SDS011;25514;46.764;15.406;2022-08-03T10:03:18;4.05;;;1.98;;
39842;SDS011;25514;46.764;15.406;2022-08-03T10:05:44;3.40;;;2.10;;
39842;SDS011;25514;46.764;15.406;2022-08-03T10:08:16;2.30;;;2.10;;
39842;SDS011;25514;46.764;15.406;2022-08-03T10:10:43;4.07;;;1.88;;
39842;SDS011;25514;46.764;15.406;2022-08-03T10:13:12;2.45;;;1.98;;
39842;SDS011;25514;46.764;15.406;2022-08-03T10:15:39;2.65;;;2.03;;
39842;SDS011;25514;46.764;15.406;2022-08-03T10:18:05;2.55;;;2.13;;
39842;SDS011;25514;46.764;15.406;2022-08-03T10:20:32;2.92;;;2.13;;
39842;SDS011;25514;46.764;15.406;2022-08-03T10:23:01;3.95;;;2.35;;
39842;SDS011;25514;46.764;15.406;2022-08-03T10:25:29;2.20;;;1.90;;
39842;SDS011;25514;46.764;15.406;2022-08-03T10:27:55;3.33;;;2.08;;
39842;SDS011;25514;46.764;15.406;2022-08-03T10:30:26;3.65;;;2.10;;
39842;SDS011;25514;46.764;15.406;2022-08-03T10:32:56;2.40;;;2.17;;
39842;SDS011;25514;46.764;15.406;2022-08-03T10:35:53;2.72;;;2.28;;
39842;SDS011;25514;46.764;15.406;2022-08-03T10:38:39;2.83;;;2.00;;
39842;SDS011;25514;46.764;15.406;2022-08-03T10:41:10;2.38;;;2.17;;
39842;SDS011;25514;46.764;15.406;2022-08-03T10:43:41;3.40;;;1.95;;
39842;SDS011;25514;46.764;15.406;2022-08-03T10:46:14;2.63;;;2.05;;
39842;SDS011;25514;46.764;15.406;2022-08-03T10:48:43;3.33;;;2.00;;
39842;SDS011;25514;46.764;15.406;2022-08-03T10:51:10;3.17;;;2.05;;
39842;SDS011;25514;46.764;15.406;2022-08-03T10:53:37;1.92;;;1.80;;
39842;SDS011;25514;46.764;15.406;2022-08-03T10:56:05;2.42;;;1.98;;
39842;SDS011;25514;46.764;15.406;2022-08-03T10:59:11;4.30;;;1.80;;
39842;SDS011;25514;46.764;15.406;2022-08-03T11:01:48;3.88;;;1.83;;
39842;SDS011;25514;46.764;15.406;2022-08-03T11:04:17;2.17;;;1.85;;
39842;SDS011;25514;46.764;15.406;2022-08-03T11:06:43;2.72;;;1.90;;
39842;SDS011;25514;46.764;15.406;2022-08-03T11:11:35;2.00;;;1.80;;
39842;SDS011;25514;46.764;15.406;2022-08-03T11:14:05;3.20;;;1.75;;
39842;SDS011;25514;46.764;15.406;2022-08-03T11:17:17;4.65;;;1.80;;
39842;SDS011;25514;46.764;15.406;2022-08-03T11:19:48;2.92;;;1.63;;
39842;SDS011;25514;46.764;15.406;2022-08-03T11:22:15;2.45;;;2.25;;
39842;SDS011;25514;46.764;15.406;2022-08-03T11:40:36;2.83;;;1.80;;
39842;SDS011;25514;46.764;15.406;2022-08-03T11:43:04;1.88;;;1.70;;
39842;SDS011;25514;46.764;15.406;2022-08-03T11:45:32;2.55;;;1.80;;
39842;SDS011;25514;46.764;15.406;2022-08-03T11:47:59;2.55;;;2.00;;
39842;SDS011;25514;46.764;15.406;2022-08-03T11:50:36;2.58;;;1.60;;
39842;SDS011;25514;46.764;15.406;2022-08-03T11:53:02;1.95;;;1.58;;
39842;SDS011;25514;46.764;15.406;2022-08-03T11:55:29;1.88;;;1.55;;
39842;SDS011;25514;46.764;15.406;2022-08-03T11:57:57;2.00;;;1.65;;
39842;SDS011;25514;46.764;15.406;2022-08-03T12:00:30;2.38;;;1.63;;
39842;SDS011;25514;46.764;15.406;2022-08-03T12:03:03;1.83;;;1.73;;
39842;SDS011;25514;46.764;15.406;2022-08-03T12:05:34;4.68;;;2.42;;
39842;SDS011;25514;46.764;15.406;2022-08-03T12:08:03;2.15;;;1.52;;
39842;SDS011;25514;46.764;15.406;2022-08-03T12:10:29;2.50;;;1.77;;
39842;SDS011;25514;46.764;15.406;2022-08-03T12:12:56;1.90;;;1.67;;
39842;SDS011;25514;46.764;15.406;2022-08-03T12:15:29;2.55;;;1.60;;
39842;SDS011;25514;46.764;15.406;2022-08-03T12:17:56;1.83;;;1.50;;
39842;SDS011;25514;46.764;15.406;2022-08-03T12:20:26;4.18;;;1.90;;
39842;SDS011;25514;46.764;15.406;2022-08-03T12:22:54;2.25;;;1.60;;
39842;SDS011;25514;46.764;15.406;2022-08-03T12:25:25;1.60;;;1.50;;
39842;SDS011;25514;46.764;15.406;2022-08-03T12:27:52;1.98;;;1.70;;
39842;SDS011;25514;46.764;15.406;2022-08-03T12:30:18;2.17;;;1.27;;
39842;SDS011;25514;46.764;15.406;2022-08-03T12:32:44;1.80;;;1.60;;
39842;SDS011;25514;46.764;15.406;2022-08-03T12:35:10;1.70;;;1.60;;
39842;SDS011;25514;46.764;15.406;2022-08-03T12:37:47;1.98;;;1.63;;
39842;SDS011;25514;46.764;15.406;2022-08-03T12:40:13;5.20;;;1.55;;
39842;SDS011;25514;46.764;15.406;2022-08-03T12:42:40;1.73;;;1.63;;
39842;SDS011;25514;46.764;15.406;2022-08-03T12:47:50;1.55;;;1.30;;
39842;SDS011;25514;46.764;15.406;2022-08-03T12:50:29;2.50;;;1.45;;
39842;SDS011;25514;46.764;15.406;2022-08-03T12:52:56;1.45;;;1.35;;
39842;SDS011;25514;46.764;15.406;2022-08-03T12:55:23;1.55;;;1.45;;
39842;SDS011;25514;46.764;15.406;2022-08-03T12:57:51;1.45;;;1.35;;
39842;SDS011;25514;46.764;15.406;2022-08-03T13:00:17;1.52;;;1.35;;
39842;SDS011;25514;46.764;15.406;2022-08-03T13:02:44;1.85;;;1.58;;
39842;SDS011;25514;46.764;15.406;2022-08-03T13:05:10;1.67;;;1.38;;
39842;SDS011;25514;46.764;15.406;2022-08-03T13:07:41;1.83;;;1.52;;
39842;SDS011;25514;46.764;15.406;2022-08-03T13:10:08;2.50;;;1.70;;
39842;SDS011;25514;46.764;15.406;2022-08-03T13:12:44;3.10;;;1.33;;
39842;SDS011;25514;46.764;15.406;2022-08-03T13:15:11;2.63;;;1.48;;
39842;SDS011;25514;46.764;15.406;2022-08-03T13:17:36;2.03;;;1.50;;
39842;SDS011;25514;46.764;15.406;2022-08-03T13:20:02;1.73;;;1.55;;
39842;SDS011;25514;46.764;15.406;2022-08-03T13:22:28;3.30;;;1.70;;
39842;SDS011;25514;46.764;15.406;2022-08-03T13:24:54;4.35;;;1.60;;
39842;SDS011;25514;46.764;15.406;2022-08-03T13:27:21;2.00;;;1.55;;
39842;SDS011;25514;46.764;15.406;2022-08-03T13:29:48;1.83;;;1.50;;
39842;SDS011;25514;46.764;15.406;2022-08-03T13:32:14;5.38;;;1.60;;
39842;SDS011;25514;46.764;15.406;2022-08-03T13:34:39;1.60;;;1.40;;
39842;SDS011;25514;46.764;15.406;2022-08-03T13:37:04;2.35;;;1.67;;
39842;SDS011;25514;46.764;15.406;2022-08-03T13:39:30;1.40;;;1.30;;
39842;SDS011;25514;46.764;15.406;2022-08-03T13:41:55;1.60;;;1.42;;
39842;SDS011;25514;46.764;15.406;2022-08-03T13:44:21;1.83;;;1.48;;
39842;SDS011;25514;46.764;15.406;2022-08-03T13:46:47;2.05;;;1.65;;
39842;SDS011;25514;46.764;15.406;2022-08-03T13:49:13;2.30;;;1.65;;
39842;SDS011;25514;46.764;15.406;2022-08-03T13:51:38;2.05;;;1.85;;
39842;SDS011;25514;46.764;15.406;2022-08-03T13:54:04;3.88;;;1.70;;
39842;SDS011;25514;46.764;15.406;2022-08-03T13:56:30;1.67;;;1.48;;
39842;SDS011;25514;46.764;15.406;2022-08-03T13:58:56;2.10;;;1.73;;
39842;SDS011;25514;46.764;15.406;2022-08-03T14:01:22;2.10;;;1.70;;
39842;SDS011;25514;46.764;15.406;2022-08-03T14:03:48;2.30;;;1.52;;
39842;SDS011;25514;46.764;15.406;2022-08-03T14:06:18;2.08;;;1.50;;
39842;SDS011;25514;46.764;15.406;2022-08-03T14:08:44;3.22;;;1.83;;
39842;SDS011;25514;46.764;15.406;2022-08-03T14:11:10;4.38;;;2.05;;
39842;SDS011;25514;46.764;15.406;2022-08-03T14:13:36;1.70;;;1.60;;
39842;SDS011;25514;46.764;15.406;2022-08-03T14:16:02;3.10;;;1.83;;
39842;SDS011;25514;46.764;15.406;2022-08-03T14:18:28;2.05;;;1.70;;
39842;SDS011;25514;46.764;15.406;2022-08-03T14:20:53;2.80;;;1.80;;
39842;SDS011;25514;46.764;15.406;2022-08-03T14:23:19;3.42;;;1.70;;
39842;SDS011;25514;46.764;15.406;2022-08-03T14:25:44;2.78;;;1.77;;
39842;SDS011;25514;46.764;15.406;2022-08-03T14:28:10;2.00;;;1.50;;
39842;SDS011;25514;46.764;15.406;2022-08-03T14:30:35;1.83;;;1.73;;
39842;SDS011;25514;46.764;15.406;2022-08-03T14:33:01;1.70;;;1.60;;
39842;SDS011;25514;46.764;15.406;2022-08-03T14:35:26;1.67;;;1.58;;
39842;SDS011;25514;46.764;15.406;2022-08-03T14:37:52;1.50;;;1.40;;
39842;SDS011;25514;46.764;15.406;2022-08-03T14:40:18;1.70;;;1.60;;
39842;SDS011;25514;46.764;15.406;2022-08-03T14:42:43;3.63;;;1.88;;
39842;SDS011;25514;46.764;15.406;2022-08-03T14:45:09;2.80;;;1.50;;
39842;SDS011;25514;46.764;15.406;2022-08-03T14:47:34;1.75;;;1.40;;
39842;SDS011;25514;46.764;15.406;2022-08-03T14:50:00;1.70;;;1.60;;
39842;SDS011;25514;46.764;15.406;2022-08-03T14:52:29;2.42;;;1.58;;
39842;SDS011;25514;46.764;15.406;2022-08-03T14:54:54;2.28;;;1.52;;
39842;SDS011;25514;46.764;15.406;2022-08-03T14:57:20;2.92;;;1.83;;
39842;SDS011;25514;46.764;15.406;2022-08-03T14:59:46;1.65;;;1.45;;
39842;SDS011;25514;46.764;15.406;2022-08-03T15:02:11;3.40;;;1.50;;
39842;SDS011;25514;46.764;15.406;2022-08-03T15:04:38;3.53;;;1.80;;
39842;SDS011;25514;46.764;15.406;2022-08-03T15:07:03;2.40;;;1.70;;
39842;SDS011;25514;46.764;15.406;2022-08-03T15:09:29;1.67;;;1.55;;
39842;SDS011;25514;46.764;15.406;2022-08-03T15:11:54;5.20;;;1.70;;
39842;SDS011;25514;46.764;15.406;2022-08-03T15:14:20;3.30;;;1.88;;
39842;SDS011;25514;46.764;15.406;2022-08-03T15:16:45;1.77;;;1.67;;
39842;SDS011;25514;46.764;15.406;2022-08-03T15:19:11;3.38;;;2.05;;
39842;SDS011;25514;46.764;15.406;2022-08-03T15:21:37;3.95;;;1.98;;
39842;SDS011;25514;46.764;15.406;2022-08-03T15:24:03;2.22;;;2.00;;
39842;SDS011;25514;46.764;15.406;2022-08-03T15:26:28;3.67;;;2.08;;
39842;SDS011;25514;46.764;15.406;2022-08-03T15:28:54;3.55;;;1.95;;